Terminal Aerodrome Forecast
Issued by NWS Green Bay, WI

Home | Current Version | Previous Version | Text Only | Print | Product List | Glossary Off
Versions: 1 2 3 4 5 6 7 8 9 10 11 12 13 14 15 16 17 18 19

000
FTUS43 KGRB 271721
TAFGRB
TAF
KGRB 271721Z 2718/2818 22007KT P6SM SCT040 SCT070
     FM280000 23004KT P6SM VCSH BKN060
     FM280900 VRB03KT P6SM VCSH OVC045
     FM281300 35004KT P6SM -SHRA OVC035
      TEMPO 2814/2818 5SM -SHRA OVC022=

USA.gov is the U.S. government's official web portal to all federal, state and local government web resources and services.